sensor_id;sensor_type;location;lat;lon;timestamp;P1;durP1;ratioP1;P2;durP2;ratioP2
76848;SDS011;65814;51.134;16.980;2022-12-20T00:01:21;10.40;;;8.60;;
76848;SDS011;65814;51.134;16.980;2022-12-20T00:03:49;10.40;;;7.30;;
76848;SDS011;65814;51.134;16.980;2022-12-20T00:06:17;11.60;;;9.00;;
76848;SDS011;65814;51.134;16.980;2022-12-20T00:08:44;12.20;;;8.80;;
76848;SDS011;65814;51.134;16.980;2022-12-20T00:11:12;13.40;;;8.70;;
76848;SDS011;65814;51.134;16.980;2022-12-20T00:16:09;13.50;;;8.30;;
76848;SDS011;65814;51.134;16.980;2022-12-20T00:18:36;11.60;;;8.20;;
76848;SDS011;65814;51.134;16.980;2022-12-20T00:21:05;11.10;;;8.80;;
76848;SDS011;65814;51.134;16.980;2022-12-20T00:23:33;9.40;;;7.50;;
76848;SDS011;65814;51.134;16.980;2022-12-20T00:28:31;11.30;;;7.40;;
76848;SDS011;65814;51.134;16.980;2022-12-20T00:30:58;11.70;;;8.70;;
76848;SDS011;65814;51.134;16.980;2022-12-20T00:33:25;12.30;;;8.30;;
76848;SDS011;65814;51.134;16.980;2022-12-20T00:35:55;9.40;;;7.40;;
76848;SDS011;65814;51.134;16.980;2022-12-20T00:38:23;12.70;;;8.60;;
76848;SDS011;65814;51.134;16.980;2022-12-20T00:41:26;9.90;;;8.00;;
76848;SDS011;65814;51.134;16.980;2022-12-20T00:43:45;11.20;;;8.10;;
76848;SDS011;65814;51.134;16.980;2022-12-20T00:46:13;10.00;;;7.90;;
76848;SDS011;65814;51.134;16.980;2022-12-20T00:48:41;9.30;;;7.80;;
76848;SDS011;65814;51.134;16.980;2022-12-20T00:51:09;10.50;;;7.40;;
76848;SDS011;65814;51.134;16.980;2022-12-20T00:53:38;11.90;;;8.40;;
76848;SDS011;65814;51.134;16.980;2022-12-20T00:56:05;11.00;;;8.00;;
76848;SDS011;65814;51.134;16.980;2022-12-20T00:58:33;10.50;;;7.40;;
76848;SDS011;65814;51.134;16.980;2022-12-20T01:01:01;9.80;;;7.80;;
76848;SDS011;65814;51.134;16.980;2022-12-20T01:03:28;10.00;;;8.70;;
76848;SDS011;65814;51.134;16.980;2022-12-20T01:05:56;10.20;;;7.90;;
76848;SDS011;65814;51.134;16.980;2022-12-20T01:08:25;11.20;;;8.00;;
76848;SDS011;65814;51.134;16.980;2022-12-20T01:11:13;12.80;;;8.90;;
76848;SDS011;65814;51.134;16.980;2022-12-20T01:13:42;11.20;;;9.40;;
76848;SDS011;65814;51.134;16.980;2022-12-20T01:16:11;10.30;;;8.30;;
76848;SDS011;65814;51.134;16.980;2022-12-20T01:18:49;13.20;;;8.70;;
76848;SDS011;65814;51.134;16.980;2022-12-20T01:21:16;11.20;;;8.30;;
76848;SDS011;65814;51.134;16.980;2022-12-20T01:23:44;10.70;;;7.80;;
76848;SDS011;65814;51.134;16.980;2022-12-20T01:26:13;10.30;;;7.70;;
76848;SDS011;65814;51.134;16.980;2022-12-20T01:28:42;11.30;;;8.00;;
76848;SDS011;65814;51.134;16.980;2022-12-20T01:31:15;11.40;;;8.30;;
76848;SDS011;65814;51.134;16.980;2022-12-20T01:33:43;11.00;;;7.80;;
76848;SDS011;65814;51.134;16.980;2022-12-20T01:36:12;11.70;;;7.80;;
76848;SDS011;65814;51.134;16.980;2022-12-20T01:38:41;11.70;;;9.30;;
76848;SDS011;65814;51.134;16.980;2022-12-20T01:41:13;9.90;;;8.30;;
76848;SDS011;65814;51.134;16.980;2022-12-20T01:43:50;12.20;;;8.90;;
76848;SDS011;65814;51.134;16.980;2022-12-20T01:46:23;9.60;;;7.30;;
76848;SDS011;65814;51.134;16.980;2022-12-20T01:49:13;10.60;;;7.70;;
76848;SDS011;65814;51.134;16.980;2022-12-20T01:51:39;11.50;;;8.90;;
76848;SDS011;65814;51.134;16.980;2022-12-20T01:54:11;14.90;;;9.30;;
76848;SDS011;65814;51.134;16.980;2022-12-20T01:56:42;9.90;;;8.00;;
76848;SDS011;65814;51.134;16.980;2022-12-20T01:59:13;11.10;;;8.20;;
76848;SDS011;65814;51.134;16.980;2022-12-20T02:01:40;12.80;;;9.40;;
76848;SDS011;65814;51.134;16.980;2022-12-20T02:04:08;13.50;;;9.60;;
76848;SDS011;65814;51.134;16.980;2022-12-20T02:06:35;9.30;;;8.00;;
76848;SDS011;65814;51.134;16.980;2022-12-20T02:09:02;10.60;;;8.40;;
76848;SDS011;65814;51.134;16.980;2022-12-20T02:14:03;11.80;;;7.30;;
76848;SDS011;65814;51.134;16.980;2022-12-20T02:16:56;9.90;;;7.90;;
76848;SDS011;65814;51.134;16.980;2022-12-20T02:22:45;9.50;;;6.80;;
76848;SDS011;65814;51.134;16.980;2022-12-20T02:30:32;9.90;;;7.20;;
76848;SDS011;65814;51.134;16.980;2022-12-20T02:33:05;10.80;;;8.00;;
76848;SDS011;65814;51.134;16.980;2022-12-20T02:35:33;8.80;;;7.40;;
76848;SDS011;65814;51.134;16.980;2022-12-20T02:38:03;10.70;;;8.30;;
76848;SDS011;65814;51.134;16.980;2022-12-20T02:40:48;9.40;;;8.00;;
76848;SDS011;65814;51.134;16.980;2022-12-20T02:43:19;11.60;;;7.70;;
76848;SDS011;65814;51.134;16.980;2022-12-20T02:46:05;11.30;;;8.60;;
76848;SDS011;65814;51.134;16.980;2022-12-20T02:48:33;12.70;;;8.40;;
76848;SDS011;65814;51.134;16.980;2022-12-20T02:51:01;14.00;;;8.60;;
76848;SDS011;65814;51.134;16.980;2022-12-20T02:53:28;12.20;;;8.90;;
76848;SDS011;65814;51.134;16.980;2022-12-20T02:58:33;9.60;;;6.60;;
76848;SDS011;65814;51.134;16.980;2022-12-20T03:01:06;12.60;;;8.40;;
76848;SDS011;65814;51.134;16.980;2022-12-20T03:03:37;9.70;;;7.40;;
76848;SDS011;65814;51.134;16.980;2022-12-20T03:06:04;10.00;;;8.00;;
76848;SDS011;65814;51.134;16.980;2022-12-20T03:08:30;10.10;;;7.80;;
76848;SDS011;65814;51.134;16.980;2022-12-20T03:10:57;10.30;;;7.50;;
76848;SDS011;65814;51.134;16.980;2022-12-20T03:13:24;10.90;;;7.80;;
76848;SDS011;65814;51.134;16.980;2022-12-20T03:15:51;9.40;;;7.70;;
76848;SDS011;65814;51.134;16.980;2022-12-20T03:18:18;10.90;;;8.30;;
76848;SDS011;65814;51.134;16.980;2022-12-20T03:20:44;11.70;;;8.30;;
76848;SDS011;65814;51.134;16.980;2022-12-20T03:23:11;11.00;;;8.20;;
76848;SDS011;65814;51.134;16.980;2022-12-20T03:25:38;9.70;;;7.00;;
76848;SDS011;65814;51.134;16.980;2022-12-20T03:28:04;10.50;;;7.20;;
76848;SDS011;65814;51.134;16.980;2022-12-20T03:30:31;9.40;;;7.60;;
76848;SDS011;65814;51.134;16.980;2022-12-20T03:35:25;9.50;;;6.40;;
76848;SDS011;65814;51.134;16.980;2022-12-20T03:37:51;10.10;;;7.70;;
76848;SDS011;65814;51.134;16.980;2022-12-20T03:40:18;9.80;;;7.00;;
76848;SDS011;65814;51.134;16.980;2022-12-20T03:42:47;9.60;;;7.70;;
76848;SDS011;65814;51.134;16.980;2022-12-20T03:45:14;11.00;;;8.80;;
76848;SDS011;65814;51.134;16.980;2022-12-20T03:47:40;10.50;;;7.20;;
76848;SDS011;65814;51.134;16.980;2022-12-20T03:52:34;9.30;;;6.90;;
76848;SDS011;65814;51.134;16.980;2022-12-20T03:55:01;9.60;;;7.20;;
76848;SDS011;65814;51.134;16.980;2022-12-20T03:57:28;9.90;;;7.70;;
76848;SDS011;65814;51.134;16.980;2022-12-20T03:59:55;8.80;;;6.90;;
76848;SDS011;65814;51.134;16.980;2022-12-20T04:02:21;12.70;;;7.70;;
76848;SDS011;65814;51.134;16.980;2022-12-20T04:04:48;12.60;;;8.10;;
76848;SDS011;65814;51.134;16.980;2022-12-20T04:07:15;10.70;;;9.60;;
76848;SDS011;65814;51.134;16.980;2022-12-20T04:09:42;9.90;;;8.00;;
76848;SDS011;65814;51.134;16.980;2022-12-20T04:12:08;10.50;;;7.30;;
76848;SDS011;65814;51.134;16.980;2022-12-20T04:14:35;11.10;;;9.00;;
76848;SDS011;65814;51.134;16.980;2022-12-20T04:17:02;11.00;;;8.40;;
76848;SDS011;65814;51.134;16.980;2022-12-20T04:19:29;8.00;;;7.00;;
76848;SDS011;65814;51.134;16.980;2022-12-20T04:21:56;10.10;;;8.10;;
76848;SDS011;65814;51.134;16.980;2022-12-20T04:24:31;9.40;;;7.80;;
76848;SDS011;65814;51.134;16.980;2022-12-20T04:26:57;9.60;;;7.30;;
76848;SDS011;65814;51.134;16.980;2022-12-20T04:29:24;10.00;;;8.30;;
76848;SDS011;65814;51.134;16.980;2022-12-20T04:31:51;11.20;;;7.70;;
76848;SDS011;65814;51.134;16.980;2022-12-20T04:36:44;9.90;;;7.50;;
76848;SDS011;65814;51.134;16.980;2022-12-20T04:39:11;9.40;;;7.20;;
76848;SDS011;65814;51.134;16.980;2022-12-20T04:41:38;12.30;;;8.40;;
76848;SDS011;65814;51.134;16.980;2022-12-20T04:44:04;11.80;;;8.30;;
76848;SDS011;65814;51.134;16.980;2022-12-20T04:46:31;10.70;;;7.50;;
76848;SDS011;65814;51.134;16.980;2022-12-20T04:49:00;10.30;;;7.70;;
76848;SDS011;65814;51.134;16.980;2022-12-20T04:51:27;10.20;;;8.00;;
76848;SDS011;65814;51.134;16.980;2022-12-20T04:53:53;9.20;;;7.20;;
76848;SDS011;65814;51.134;16.980;2022-12-20T04:56:25;10.30;;;7.80;;
76848;SDS011;65814;51.134;16.980;2022-12-20T04:58:54;10.30;;;7.80;;
76848;SDS011;65814;51.134;16.980;2022-12-20T05:01:22;9.90;;;8.20;;
76848;SDS011;65814;51.134;16.980;2022-12-20T05:03:50;10.50;;;7.80;;
76848;SDS011;65814;51.134;16.980;2022-12-20T05:08:43;9.90;;;6.50;;
76848;SDS011;65814;51.134;16.980;2022-12-20T05:11:10;12.40;;;8.40;;
76848;SDS011;65814;51.134;16.980;2022-12-20T05:13:37;11.00;;;7.20;;
76848;SDS011;65814;51.134;16.980;2022-12-20T05:16:05;11.10;;;7.70;;
76848;SDS011;65814;51.134;16.980;2022-12-20T05:18:31;11.00;;;9.10;;
76848;SDS011;65814;51.134;16.980;2022-12-20T05:20:58;9.70;;;6.90;;
76848;SDS011;65814;51.134;16.980;2022-12-20T05:23:45;10.20;;;8.00;;
76848;SDS011;65814;51.134;16.980;2022-12-20T05:26:35;10.90;;;7.80;;
76848;SDS011;65814;51.134;16.980;2022-12-20T05:29:03;11.90;;;8.30;;
76848;SDS011;65814;51.134;16.980;2022-12-20T05:31:30;8.40;;;7.10;;
76848;SDS011;65814;51.134;16.980;2022-12-20T05:33:57;8.00;;;6.50;;
76848;SDS011;65814;51.134;16.980;2022-12-20T05:36:23;8.90;;;6.40;;
76848;SDS011;65814;51.134;16.980;2022-12-20T05:38:50;11.30;;;8.80;;
76848;SDS011;65814;51.134;16.980;2022-12-20T05:41:16;15.30;;;9.00;;
76848;SDS011;65814;51.134;16.980;2022-12-20T05:43:43;12.10;;;8.50;;
76848;SDS011;65814;51.134;16.980;2022-12-20T05:46:10;11.90;;;9.40;;
76848;SDS011;65814;51.134;16.980;2022-12-20T05:48:36;9.90;;;7.40;;
76848;SDS011;65814;51.134;16.980;2022-12-20T05:51:03;11.60;;;8.50;;
76848;SDS011;65814;51.134;16.980;2022-12-20T05:53:30;10.60;;;8.10;;
76848;SDS011;65814;51.134;16.980;2022-12-20T05:55:57;10.80;;;8.40;;
76848;SDS011;65814;51.134;16.980;2022-12-20T05:58:24;13.10;;;9.40;;
76848;SDS011;65814;51.134;16.980;2022-12-20T06:00:51;12.40;;;8.00;;
76848;SDS011;65814;51.134;16.980;2022-12-20T06:03:17;13.90;;;9.30;;
76848;SDS011;65814;51.134;16.980;2022-12-20T06:08:11;12.00;;;9.00;;
76848;SDS011;65814;51.134;16.980;2022-12-20T06:13:09;13.10;;;9.30;;
76848;SDS011;65814;51.134;16.980;2022-12-20T06:15:35;11.60;;;8.20;;
76848;SDS011;65814;51.134;16.980;2022-12-20T06:18:03;10.90;;;8.60;;
76848;SDS011;65814;51.134;16.980;2022-12-20T06:20:30;12.60;;;8.90;;
76848;SDS011;65814;51.134;16.980;2022-12-20T06:22:58;13.40;;;9.80;;
76848;SDS011;65814;51.134;16.980;2022-12-20T06:25:24;13.40;;;9.40;;
76848;SDS011;65814;51.134;16.980;2022-12-20T06:27:51;14.10;;;9.90;;
76848;SDS011;65814;51.134;16.980;2022-12-20T06:30:18;11.90;;;9.30;;
76848;SDS011;65814;51.134;16.980;2022-12-20T06:32:46;15.30;;;10.90;;
76848;SDS011;65814;51.134;16.980;2022-12-20T06:35:12;13.70;;;9.50;;
76848;SDS011;65814;51.134;16.980;2022-12-20T06:37:40;12.70;;;9.50;;
76848;SDS011;65814;51.134;16.980;2022-12-20T06:40:10;14.30;;;9.80;;
76848;SDS011;65814;51.134;16.980;2022-12-20T06:42:38;13.30;;;10.30;;
76848;SDS011;65814;51.134;16.980;2022-12-20T06:45:04;13.00;;;9.00;;
76848;SDS011;65814;51.134;16.980;2022-12-20T06:47:32;11.80;;;9.10;;
76848;SDS011;65814;51.134;16.980;2022-12-20T06:49:58;15.30;;;10.50;;
76848;SDS011;65814;51.134;16.980;2022-12-20T06:52:25;12.70;;;8.90;;
76848;SDS011;65814;51.134;16.980;2022-12-20T06:54:51;14.40;;;9.80;;
76848;SDS011;65814;51.134;16.980;2022-12-20T06:57:18;15.20;;;10.60;;
76848;SDS011;65814;51.134;16.980;2022-12-20T06:59:47;16.30;;;11.70;;
76848;SDS011;65814;51.134;16.980;2022-12-20T07:02:14;16.30;;;10.70;;
76848;SDS011;65814;51.134;16.980;2022-12-20T07:04:41;13.90;;;10.10;;
76848;SDS011;65814;51.134;16.980;2022-12-20T07:07:11;12.90;;;10.20;;
76848;SDS011;65814;51.134;16.980;2022-12-20T07:09:38;15.70;;;9.80;;
76848;SDS011;65814;51.134;16.980;2022-12-20T07:12:07;12.30;;;8.70;;
76848;SDS011;65814;51.134;16.980;2022-12-20T07:14:34;13.60;;;10.00;;
76848;SDS011;65814;51.134;16.980;2022-12-20T07:17:03;13.70;;;10.50;;
76848;SDS011;65814;51.134;16.980;2022-12-20T07:19:30;14.30;;;10.00;;
76848;SDS011;65814;51.134;16.980;2022-12-20T07:21:58;14.50;;;9.80;;
76848;SDS011;65814;51.134;16.980;2022-12-20T07:24:24;14.20;;;10.00;;
76848;SDS011;65814;51.134;16.980;2022-12-20T07:29:18;13.50;;;9.00;;
76848;SDS011;65814;51.134;16.980;2022-12-20T07:31:45;13.60;;;10.50;;
76848;SDS011;65814;51.134;16.980;2022-12-20T07:34:12;12.60;;;9.30;;
76848;SDS011;65814;51.134;16.980;2022-12-20T07:36:38;15.60;;;10.80;;
76848;SDS011;65814;51.134;16.980;2022-12-20T07:39:05;14.70;;;8.80;;
76848;SDS011;65814;51.134;16.980;2022-12-20T07:41:32;13.60;;;9.80;;
76848;SDS011;65814;51.134;16.980;2022-12-20T07:43:58;12.20;;;8.50;;
76848;SDS011;65814;51.134;16.980;2022-12-20T07:46:25;14.00;;;10.00;;
76848;SDS011;65814;51.134;16.980;2022-12-20T07:48:54;14.10;;;9.90;;
76848;SDS011;65814;51.134;16.980;2022-12-20T07:53:51;15.50;;;10.90;;
76848;SDS011;65814;51.134;16.980;2022-12-20T07:56:46;15.70;;;10.30;;
76848;SDS011;65814;51.134;16.980;2022-12-20T07:59:16;13.10;;;9.90;;
76848;SDS011;65814;51.134;16.980;2022-12-20T08:01:45;15.30;;;10.10;;
76848;SDS011;65814;51.134;16.980;2022-12-20T08:04:14;17.50;;;10.30;;
76848;SDS011;65814;51.134;16.980;2022-12-20T08:06:47;14.00;;;10.20;;
76848;SDS011;65814;51.134;16.980;2022-12-20T08:09:15;12.30;;;9.70;;
76848;SDS011;65814;51.134;16.980;2022-12-20T08:11:43;14.10;;;10.50;;
76848;SDS011;65814;51.134;16.980;2022-12-20T08:14:12;13.80;;;9.40;;
76848;SDS011;65814;51.134;16.980;2022-12-20T08:16:39;16.20;;;11.10;;
76848;SDS011;65814;51.134;16.980;2022-12-20T08:19:07;15.80;;;11.10;;
76848;SDS011;65814;51.134;16.980;2022-12-20T08:21:37;15.60;;;9.50;;
76848;SDS011;65814;51.134;16.980;2022-12-20T08:24:05;16.00;;;9.90;;
76848;SDS011;65814;51.134;16.980;2022-12-20T08:26:39;16.70;;;11.50;;
76848;SDS011;65814;51.134;16.980;2022-12-20T08:29:07;15.90;;;9.70;;
76848;SDS011;65814;51.134;16.980;2022-12-20T08:31:37;16.10;;;11.70;;
76848;SDS011;65814;51.134;16.980;2022-12-20T08:34:04;13.80;;;10.20;;
76848;SDS011;65814;51.134;16.980;2022-12-20T08:36:32;15.60;;;10.00;;
76848;SDS011;65814;51.134;16.980;2022-12-20T08:39:01;13.80;;;10.40;;
76848;SDS011;65814;51.134;16.980;2022-12-20T08:41:28;14.20;;;9.90;;
76848;SDS011;65814;51.134;16.980;2022-12-20T08:43:56;13.90;;;9.10;;
76848;SDS011;65814;51.134;16.980;2022-12-20T08:46:22;16.40;;;11.10;;
76848;SDS011;65814;51.134;16.980;2022-12-20T08:48:49;13.70;;;9.80;;
76848;SDS011;65814;51.134;16.980;2022-12-20T08:51:16;14.70;;;10.10;;
76848;SDS011;65814;51.134;16.980;2022-12-20T08:53:43;13.50;;;9.70;;
76848;SDS011;65814;51.134;16.980;2022-12-20T08:56:11;17.00;;;10.70;;
76848;SDS011;65814;51.134;16.980;2022-12-20T08:58:41;15.40;;;10.80;;
76848;SDS011;65814;51.134;16.980;2022-12-20T09:01:10;15.70;;;10.10;;
76848;SDS011;65814;51.134;16.980;2022-12-20T09:03:38;15.70;;;10.20;;
76848;SDS011;65814;51.134;16.980;2022-12-20T09:06:06;12.10;;;9.90;;
76848;SDS011;65814;51.134;16.980;2022-12-20T09:08:35;16.60;;;10.40;;
76848;SDS011;65814;51.134;16.980;2022-12-20T09:11:09;14.70;;;10.30;;
76848;SDS011;65814;51.134;16.980;2022-12-20T09:13:38;15.30;;;10.20;;
76848;SDS011;65814;51.134;16.980;2022-12-20T09:16:11;18.40;;;12.50;;
76848;SDS011;65814;51.134;16.980;2022-12-20T09:18:40;17.10;;;10.80;;
76848;SDS011;65814;51.134;16.980;2022-12-20T09:21:06;15.70;;;9.50;;
76848;SDS011;65814;51.134;16.980;2022-12-20T09:23:34;12.80;;;10.90;;
76848;SDS011;65814;51.134;16.980;2022-12-20T09:26:14;16.40;;;10.40;;
76848;SDS011;65814;51.134;16.980;2022-12-20T09:28:41;16.60;;;11.50;;
76848;SDS011;65814;51.134;16.980;2022-12-20T09:31:19;15.20;;;10.50;;
76848;SDS011;65814;51.134;16.980;2022-12-20T09:33:47;14.70;;;10.80;;
76848;SDS011;65814;51.134;16.980;2022-12-20T09:36:16;14.30;;;9.80;;
76848;SDS011;65814;51.134;16.980;2022-12-20T09:38:44;16.00;;;10.60;;
76848;SDS011;65814;51.134;16.980;2022-12-20T09:46:54;18.40;;;12.00;;
76848;SDS011;65814;51.134;16.980;2022-12-20T09:49:24;16.80;;;12.00;;
76848;SDS011;65814;51.134;16.980;2022-12-20T09:57:33;16.50;;;10.70;;
76848;SDS011;65814;51.134;16.980;2022-12-20T10:00:13;15.70;;;11.20;;
76848;SDS011;65814;51.134;16.980;2022-12-20T10:02:40;17.40;;;12.00;;
76848;SDS011;65814;51.134;16.980;2022-12-20T10:05:35;17.80;;;11.00;;
76848;SDS011;65814;51.134;16.980;2022-12-20T10:08:15;18.90;;;11.40;;
76848;SDS011;65814;51.134;16.980;2022-12-20T10:13:39;22.80;;;14.30;;
76848;SDS011;65814;51.134;16.980;2022-12-20T10:16:27;19.90;;;12.80;;
76848;SDS011;65814;51.134;16.980;2022-12-20T10:19:13;16.40;;;11.80;;
76848;SDS011;65814;51.134;16.980;2022-12-20T10:22:04;14.70;;;10.10;;
76848;SDS011;65814;51.134;16.980;2022-12-20T10:24:38;16.00;;;10.50;;
76848;SDS011;65814;51.134;16.980;2022-12-20T10:27:14;14.80;;;10.10;;
76848;SDS011;65814;51.134;16.980;2022-12-20T10:29:42;21.40;;;12.50;;
76848;SDS011;65814;51.134;16.980;2022-12-20T10:32:11;17.00;;;11.20;;
76848;SDS011;65814;51.134;16.980;2022-12-20T10:34:43;18.60;;;12.90;;
76848;SDS011;65814;51.134;16.980;2022-12-20T10:37:17;17.10;;;12.30;;
76848;SDS011;65814;51.134;16.980;2022-12-20T10:39:46;20.50;;;12.80;;
76848;SDS011;65814;51.134;16.980;2022-12-20T10:42:33;16.40;;;11.30;;
76848;SDS011;65814;51.134;16.980;2022-12-20T10:45:05;24.30;;;15.20;;
76848;SDS011;65814;51.134;16.980;2022-12-20T10:47:50;18.80;;;12.90;;
76848;SDS011;65814;51.134;16.980;2022-12-20T10:50:18;20.40;;;12.50;;
76848;SDS011;65814;51.134;16.980;2022-12-20T10:53:01;17.90;;;12.70;;
76848;SDS011;65814;51.134;16.980;2022-12-20T10:55:33;18.60;;;12.50;;
76848;SDS011;65814;51.134;16.980;2022-12-20T10:58:04;17.00;;;11.20;;
76848;SDS011;65814;51.134;16.980;2022-12-20T11:00:37;17.90;;;12.10;;
76848;SDS011;65814;51.134;16.980;2022-12-20T11:03:08;16.70;;;11.40;;
76848;SDS011;65814;51.134;16.980;2022-12-20T11:05:51;18.50;;;12.30;;
76848;SDS011;65814;51.134;16.980;2022-12-20T11:08:24;18.60;;;11.40;;
76848;SDS011;65814;51.134;16.980;2022-12-20T11:13:43;18.80;;;12.70;;
76848;SDS011;65814;51.134;16.980;2022-12-20T11:16:33;19.40;;;11.70;;
76848;SDS011;65814;51.134;16.980;2022-12-20T11:19:05;22.00;;;13.40;;
76848;SDS011;65814;51.134;16.980;2022-12-20T11:24:50;19.60;;;13.30;;
76848;SDS011;65814;51.134;16.980;2022-12-20T11:30:23;16.60;;;12.50;;
76848;SDS011;65814;51.134;16.980;2022-12-20T11:35:40;22.20;;;14.10;;
76848;SDS011;65814;51.134;16.980;2022-12-20T11:38:36;19.70;;;12.30;;
76848;SDS011;65814;51.134;16.980;2022-12-20T11:41:07;24.80;;;14.00;;
76848;SDS011;65814;51.134;16.980;2022-12-20T11:52:34;20.80;;;15.20;;
76848;SDS011;65814;51.134;16.980;2022-12-20T11:55:08;17.70;;;12.30;;
76848;SDS011;65814;51.134;16.980;2022-12-20T11:58:01;17.90;;;12.80;;
76848;SDS011;65814;51.134;16.980;2022-12-20T12:01:09;19.00;;;11.70;;
76848;SDS011;65814;51.134;16.980;2022-12-20T12:03:42;18.40;;;13.30;;
76848;SDS011;65814;51.134;16.980;2022-12-20T12:06:26;17.40;;;12.90;;
76848;SDS011;65814;51.134;16.980;2022-12-20T12:09:04;18.00;;;12.10;;
76848;SDS011;65814;51.134;16.980;2022-12-20T12:11:56;18.20;;;12.10;;
76848;SDS011;65814;51.134;16.980;2022-12-20T12:17:38;17.10;;;11.80;;
76848;SDS011;65814;51.134;16.980;2022-12-20T12:23:11;19.10;;;14.60;;
76848;SDS011;65814;51.134;16.980;2022-12-20T12:25:42;20.20;;;13.80;;
76848;SDS011;65814;51.134;16.980;2022-12-20T12:28:09;20.20;;;12.30;;
76848;SDS011;65814;51.134;16.980;2022-12-20T12:30:39;18.00;;;11.40;;
76848;SDS011;65814;51.134;16.980;2022-12-20T12:33:14;16.40;;;11.10;;
76848;SDS011;65814;51.134;16.980;2022-12-20T12:41:35;17.60;;;12.10;;
76848;SDS011;65814;51.134;16.980;2022-12-20T12:44:45;20.50;;;11.80;;
76848;SDS011;65814;51.134;16.980;2022-12-20T12:47:18;17.40;;;12.30;;
76848;SDS011;65814;51.134;16.980;2022-12-20T12:55:35;17.90;;;12.20;;
76848;SDS011;65814;51.134;16.980;2022-12-20T13:00:52;18.80;;;12.50;;
76848;SDS011;65814;51.134;16.980;2022-12-20T13:08:51;16.50;;;11.60;;
76848;SDS011;65814;51.134;16.980;2022-12-20T13:11:41;18.00;;;12.30;;
76848;SDS011;65814;51.134;16.980;2022-12-20T13:16:44;18.10;;;12.30;;
76848;SDS011;65814;51.134;16.980;2022-12-20T13:19:35;18.20;;;11.00;;
76848;SDS011;65814;51.134;16.980;2022-12-20T13:27:02;18.80;;;12.50;;
76848;SDS011;65814;51.134;16.980;2022-12-20T13:29:42;19.10;;;13.50;;
76848;SDS011;65814;51.134;16.980;2022-12-20T13:37:55;20.10;;;12.30;;
76848;SDS011;65814;51.134;16.980;2022-12-20T13:43:25;16.80;;;11.70;;
76848;SDS011;65814;51.134;16.980;2022-12-20T13:51:03;16.60;;;12.60;;
76848;SDS011;65814;51.134;16.980;2022-12-20T13:53:31;15.20;;;10.10;;
76848;SDS011;65814;51.134;16.980;2022-12-20T13:55:58;17.40;;;11.90;;
76848;SDS011;65814;51.134;16.980;2022-12-20T13:58:54;18.30;;;11.80;;
76848;SDS011;65814;51.134;16.980;2022-12-20T14:01:22;18.40;;;12.50;;
76848;SDS011;65814;51.134;16.980;2022-12-20T14:03:50;19.90;;;12.70;;
76848;SDS011;65814;51.134;16.980;2022-12-20T14:06:18;20.20;;;13.50;;
76848;SDS011;65814;51.134;16.980;2022-12-20T14:08:52;18.50;;;11.90;;
76848;SDS011;65814;51.134;16.980;2022-12-20T14:11:21;17.00;;;11.60;;
76848;SDS011;65814;51.134;16.980;2022-12-20T14:13:56;17.70;;;11.30;;
76848;SDS011;65814;51.134;16.980;2022-12-20T14:16:26;16.80;;;10.90;;
76848;SDS011;65814;51.134;16.980;2022-12-20T14:21:22;14.70;;;10.90;;
76848;SDS011;65814;51.134;16.980;2022-12-20T14:23:50;15.80;;;10.80;;
76848;SDS011;65814;51.134;16.980;2022-12-20T14:26:21;18.30;;;12.60;;
76848;SDS011;65814;51.134;16.980;2022-12-20T14:28:54;21.50;;;12.70;;
76848;SDS011;65814;51.134;16.980;2022-12-20T14:36:36;17.40;;;12.40;;
76848;SDS011;65814;51.134;16.980;2022-12-20T14:42:15;19.40;;;11.90;;
76848;SDS011;65814;51.134;16.980;2022-12-20T14:44:45;21.10;;;12.40;;
76848;SDS011;65814;51.134;16.980;2022-12-20T14:47:17;19.50;;;11.00;;
76848;SDS011;65814;51.134;16.980;2022-12-20T14:50:00;18.60;;;12.60;;
76848;SDS011;65814;51.134;16.980;2022-12-20T14:52:35;19.10;;;12.30;;
76848;SDS011;65814;51.134;16.980;2022-12-20T14:55:22;18.30;;;12.30;;
76848;SDS011;65814;51.134;16.980;2022-12-20T14:57:58;19.30;;;13.00;;
76848;SDS011;65814;51.134;16.980;2022-12-20T15:00:26;20.20;;;14.50;;
76848;SDS011;65814;51.134;16.980;2022-12-20T15:10:40;17.80;;;12.00;;
76848;SDS011;65814;51.134;16.980;2022-12-20T15:13:12;17.30;;;11.90;;
76848;SDS011;65814;51.134;16.980;2022-12-20T15:15:40;18.60;;;12.60;;
76848;SDS011;65814;51.134;16.980;2022-12-20T15:18:13;18.00;;;12.30;;
76848;SDS011;65814;51.134;16.980;2022-12-20T15:20:42;18.70;;;12.10;;
76848;SDS011;65814;51.134;16.980;2022-12-20T15:23:16;18.50;;;12.30;;
76848;SDS011;65814;51.134;16.980;2022-12-20T15:25:45;18.40;;;12.40;;
76848;SDS011;65814;51.134;16.980;2022-12-20T15:28:13;18.10;;;12.70;;
76848;SDS011;65814;51.134;16.980;2022-12-20T15:30:41;19.80;;;13.50;;
76848;SDS011;65814;51.134;16.980;2022-12-20T15:33:10;20.80;;;13.70;;
76848;SDS011;65814;51.134;16.980;2022-12-20T15:35:40;18.00;;;12.10;;
76848;SDS011;65814;51.134;16.980;2022-12-20T15:38:21;18.00;;;11.80;;
76848;SDS011;65814;51.134;16.980;2022-12-20T15:41:13;20.50;;;14.20;;
76848;SDS011;65814;51.134;16.980;2022-12-20T15:43:44;17.50;;;12.10;;
76848;SDS011;65814;51.134;16.980;2022-12-20T15:46:11;19.70;;;12.90;;
76848;SDS011;65814;51.134;16.980;2022-12-20T15:48:39;18.70;;;10.90;;
76848;SDS011;65814;51.134;16.980;2022-12-20T15:51:11;19.40;;;12.80;;
76848;SDS011;65814;51.134;16.980;2022-12-20T15:53:41;19.20;;;12.30;;
76848;SDS011;65814;51.134;16.980;2022-12-20T15:56:11;17.00;;;11.60;;
76848;SDS011;65814;51.134;16.980;2022-12-20T15:58:45;19.30;;;13.50;;
76848;SDS011;65814;51.134;16.980;2022-12-20T16:01:26;27.30;;;20.20;;
76848;SDS011;65814;51.134;16.980;2022-12-20T16:04:02;22.20;;;16.70;;
76848;SDS011;65814;51.134;16.980;2022-12-20T16:06:30;23.10;;;17.30;;
76848;SDS011;65814;51.134;16.980;2022-12-20T16:08:58;22.20;;;17.20;;
76848;SDS011;65814;51.134;16.980;2022-12-20T16:11:26;19.40;;;14.60;;
76848;SDS011;65814;51.134;16.980;2022-12-20T16:13:54;20.10;;;14.30;;
76848;SDS011;65814;51.134;16.980;2022-12-20T16:16:29;17.20;;;13.00;;
76848;SDS011;65814;51.134;16.980;2022-12-20T16:19:00;20.00;;;13.10;;
76848;SDS011;65814;51.134;16.980;2022-12-20T16:21:30;18.70;;;13.60;;
76848;SDS011;65814;51.134;16.980;2022-12-20T16:23:58;20.00;;;12.50;;
76848;SDS011;65814;51.134;16.980;2022-12-20T16:26:25;17.60;;;12.90;;
76848;SDS011;65814;51.134;16.980;2022-12-20T16:28:53;18.90;;;13.40;;
76848;SDS011;65814;51.134;16.980;2022-12-20T16:31:27;24.40;;;15.20;;
76848;SDS011;65814;51.134;16.980;2022-12-20T16:34:01;20.50;;;13.80;;
76848;SDS011;65814;51.134;16.980;2022-12-20T16:36:32;17.40;;;12.60;;
76848;SDS011;65814;51.134;16.980;2022-12-20T16:38:58;19.50;;;12.70;;
76848;SDS011;65814;51.134;16.980;2022-12-20T16:41:28;16.80;;;12.50;;
76848;SDS011;65814;51.134;16.980;2022-12-20T16:48:04;17.60;;;12.90;;
76848;SDS011;65814;51.134;16.980;2022-12-20T16:50:31;17.20;;;12.50;;
76848;SDS011;65814;51.134;16.980;2022-12-20T16:52:58;20.10;;;13.10;;
76848;SDS011;65814;51.134;16.980;2022-12-20T16:55:25;16.30;;;12.80;;
76848;SDS011;65814;51.134;16.980;2022-12-20T16:57:52;17.80;;;12.60;;
76848;SDS011;65814;51.134;16.980;2022-12-20T17:00:21;18.10;;;13.30;;